Terminal Aerodrome Forecast
Issued by NWS St Louis, MO

Home | Current Version | Previous Version | Text Only | Print | Product List | Glossary On
Versions: 1 2 3 4 5 6 7 8 9 10 11 12 13 14 15 16 17 18 19 20 21 22 23 24 25 26 27 28
110
FTUS43 KLSX 231637 AAB
TAFSTL
TAF AMD
KSTL 231637Z 2317/2418 25010KT P6SM SCT025 BKN250
      TEMPO 2317/2319 BKN025
     FM231900 35012KT P6SM SCT250
     FM240100 32005KT P6SM FEW250=

USA.gov is the U.S. government's official web portal to all federal, state and local government web resources and services.